Absecon Heights, New Jersey
Current Conditions -  °F | °C
As of 11:54 PM on Saturday 25 Oct 2014 (Local Time) from KACY Reporting Station
Clear Clear  
Wind Chill: 14°   Ceiling: Unl
Heat Index: 14°   Visibility: 10mi
Dew Point:   Wind: 9mph
Humidity: 69%   Direction: 230°SW
Pressure: 29.65"   Gusts: NA
Location:  39.4315°N, 74.5003°W
Report Text: KACY 260354Z 23008KT 10SM CLR 14/08 A2965 RMK AO2 SLP041 T01390083
Loading
Personal Weather Stations






























Interactive Weather Map
Tropical Storm Tracking
New forecast layout! Learn more

10-Day Weather Forecast

Advertisements
Track Severe Weather on mobile